sensor_id;sensor_type;location;lat;lon;timestamp;temperature;humidity
15574;DHT22;7888;46.748;8.102;2022-07-03T00:01:25;23.20;50.30
15574;DHT22;7888;46.748;8.102;2022-07-03T00:03:51;23.20;50.10
15574;DHT22;7888;46.748;8.102;2022-07-03T00:06:17;23.20;50.30
15574;DHT22;7888;46.748;8.102;2022-07-03T00:08:43;23.10;50.30
15574;DHT22;7888;46.748;8.102;2022-07-03T00:11:09;23.10;50.40
15574;DHT22;7888;46.748;8.102;2022-07-03T00:13:36;23.10;50.30
15574;DHT22;7888;46.748;8.102;2022-07-03T00:16:02;23.10;50.40
15574;DHT22;7888;46.748;8.102;2022-07-03T00:18:28;23.00;50.40
15574;DHT22;7888;46.748;8.102;2022-07-03T00:21:07;23.00;50.50
15574;DHT22;7888;46.748;8.102;2022-07-03T00:23:44;22.90;50.90
15574;DHT22;7888;46.748;8.102;2022-07-03T00:26:16;22.90;51.10
15574;DHT22;7888;46.748;8.102;2022-07-03T00:28:45;22.90;50.90
15574;DHT22;7888;46.748;8.102;2022-07-03T00:31:12;22.80;50.70
15574;DHT22;7888;46.748;8.102;2022-07-03T00:33:39;22.80;50.80
15574;DHT22;7888;46.748;8.102;2022-07-03T00:36:07;22.80;50.80
15574;DHT22;7888;46.748;8.102;2022-07-03T00:38:33;22.80;50.80
15574;DHT22;7888;46.748;8.102;2022-07-03T00:41:02;22.70;50.90
15574;DHT22;7888;46.748;8.102;2022-07-03T00:43:29;22.70;51.00
15574;DHT22;7888;46.748;8.102;2022-07-03T00:46:06;22.70;51.00
15574;DHT22;7888;46.748;8.102;2022-07-03T00:48:37;22.60;51.30
15574;DHT22;7888;46.748;8.102;2022-07-03T00:51:06;22.60;51.30
15574;DHT22;7888;46.748;8.102;2022-07-03T00:53:33;22.60;51.00
15574;DHT22;7888;46.748;8.102;2022-07-03T00:56:04;22.60;51.00
15574;DHT22;7888;46.748;8.102;2022-07-03T00:58:32;22.60;51.10
15574;DHT22;7888;46.748;8.102;2022-07-03T01:01:00;22.50;51.00
15574;DHT22;7888;46.748;8.102;2022-07-03T01:03:27;22.50;51.00
15574;DHT22;7888;46.748;8.102;2022-07-03T01:05:55;22.50;51.00
15574;DHT22;7888;46.748;8.102;2022-07-03T01:08:49;22.50;51.20
15574;DHT22;7888;46.748;8.102;2022-07-03T01:11:38;22.40;52.50
15574;DHT22;7888;46.748;8.102;2022-07-03T01:17:09;22.40;51.90
15574;DHT22;7888;46.748;8.102;2022-07-03T01:19:47;22.30;51.60
15574;DHT22;7888;46.748;8.102;2022-07-03T01:22:34;22.30;51.70
15574;DHT22;7888;46.748;8.102;2022-07-03T01:30:27;22.20;52.20
15574;DHT22;7888;46.748;8.102;2022-07-03T01:33:06;22.10;51.80
15574;DHT22;7888;46.748;8.102;2022-07-03T01:36:04;22.10;51.70
15574;DHT22;7888;46.748;8.102;2022-07-03T01:38:36;22.10;52.30
15574;DHT22;7888;46.748;8.102;2022-07-03T01:41:05;22.10;52.00
15574;DHT22;7888;46.748;8.102;2022-07-03T01:43:55;22.00;52.10
15574;DHT22;7888;46.748;8.102;2022-07-03T01:46:28;22.00;52.50
15574;DHT22;7888;46.748;8.102;2022-07-03T01:48:57;22.00;52.30
15574;DHT22;7888;46.748;8.102;2022-07-03T01:51:25;22.00;52.20
15574;DHT22;7888;46.748;8.102;2022-07-03T01:53:52;21.90;52.20
15574;DHT22;7888;46.748;8.102;2022-07-03T01:56:20;21.90;52.20
15574;DHT22;7888;46.748;8.102;2022-07-03T01:58:48;21.90;52.30
15574;DHT22;7888;46.748;8.102;2022-07-03T02:01:18;21.90;52.30
15574;DHT22;7888;46.748;8.102;2022-07-03T02:07:08;21.90;52.40
15574;DHT22;7888;46.748;8.102;2022-07-03T02:12:40;21.90;52.40
15574;DHT22;7888;46.748;8.102;2022-07-03T02:15:17;21.80;52.60
15574;DHT22;7888;46.748;8.102;2022-07-03T02:17:50;21.80;52.30
15574;DHT22;7888;46.748;8.102;2022-07-03T02:20:18;21.80;52.60
15574;DHT22;7888;46.748;8.102;2022-07-03T02:23:00;21.80;52.60
15574;DHT22;7888;46.748;8.102;2022-07-03T02:25:35;21.70;53.10
15574;DHT22;7888;46.748;8.102;2022-07-03T02:31:21;21.70;52.90
15574;DHT22;7888;46.748;8.102;2022-07-03T02:33:52;21.70;52.80
15574;DHT22;7888;46.748;8.102;2022-07-03T02:36:24;21.60;52.70
15574;DHT22;7888;46.748;8.102;2022-07-03T02:38:56;21.60;52.90
15574;DHT22;7888;46.748;8.102;2022-07-03T02:41:23;21.50;53.00
15574;DHT22;7888;46.748;8.102;2022-07-03T02:44:04;21.50;52.80
15574;DHT22;7888;46.748;8.102;2022-07-03T02:47:03;21.50;52.90
15574;DHT22;7888;46.748;8.102;2022-07-03T02:50:05;21.50;52.80
15574;DHT22;7888;46.748;8.102;2022-07-03T02:55:34;21.50;52.80
15574;DHT22;7888;46.748;8.102;2022-07-03T03:07:01;21.50;52.90
15574;DHT22;7888;46.748;8.102;2022-07-03T03:09:39;21.40;53.70
15574;DHT22;7888;46.748;8.102;2022-07-03T03:12:08;21.40;52.80
15574;DHT22;7888;46.748;8.102;2022-07-03T03:14:41;21.40;52.70
15574;DHT22;7888;46.748;8.102;2022-07-03T03:17:18;21.40;52.90
15574;DHT22;7888;46.748;8.102;2022-07-03T03:19:52;21.40;52.80
15574;DHT22;7888;46.748;8.102;2022-07-03T03:25:25;21.30;53.10
15574;DHT22;7888;46.748;8.102;2022-07-03T03:27:52;21.30;52.90
15574;DHT22;7888;46.748;8.102;2022-07-03T03:30:18;21.30;53.10
15574;DHT22;7888;46.748;8.102;2022-07-03T03:32:44;21.30;53.10
15574;DHT22;7888;46.748;8.102;2022-07-03T03:35:10;21.30;53.10
15574;DHT22;7888;46.748;8.102;2022-07-03T03:37:36;21.30;53.40
15574;DHT22;7888;46.748;8.102;2022-07-03T03:40:04;21.20;53.60
15574;DHT22;7888;46.748;8.102;2022-07-03T03:42:30;21.20;53.70
15574;DHT22;7888;46.748;8.102;2022-07-03T03:44:56;21.20;53.80
15574;DHT22;7888;46.748;8.102;2022-07-03T03:47:22;21.20;53.90
15574;DHT22;7888;46.748;8.102;2022-07-03T03:49:48;21.20;53.80
15574;DHT22;7888;46.748;8.102;2022-07-03T03:52:13;21.20;54.00
15574;DHT22;7888;46.748;8.102;2022-07-03T03:54:39;21.20;54.10
15574;DHT22;7888;46.748;8.102;2022-07-03T03:57:20;21.20;54.10
15574;DHT22;7888;46.748;8.102;2022-07-03T03:59:49;21.20;54.50
15574;DHT22;7888;46.748;8.102;2022-07-03T04:02:16;21.20;54.00
15574;DHT22;7888;46.748;8.102;2022-07-03T04:04:42;21.20;54.20
15574;DHT22;7888;46.748;8.102;2022-07-03T04:07:08;21.10;54.10
15574;DHT22;7888;46.748;8.102;2022-07-03T04:09:34;21.10;54.10
15574;DHT22;7888;46.748;8.102;2022-07-03T04:12:00;21.20;54.20
15574;DHT22;7888;46.748;8.102;2022-07-03T04:14:26;21.10;54.30
15574;DHT22;7888;46.748;8.102;2022-07-03T04:16:52;21.10;54.20
15574;DHT22;7888;46.748;8.102;2022-07-03T04:19:18;21.20;54.40
15574;DHT22;7888;46.748;8.102;2022-07-03T04:21:43;21.10;54.30
15574;DHT22;7888;46.748;8.102;2022-07-03T04:24:09;21.10;54.30
15574;DHT22;7888;46.748;8.102;2022-07-03T04:26:35;21.10;54.30
15574;DHT22;7888;46.748;8.102;2022-07-03T04:29:01;21.10;54.30
15574;DHT22;7888;46.748;8.102;2022-07-03T04:31:27;21.20;54.50
15574;DHT22;7888;46.748;8.102;2022-07-03T04:33:52;21.10;54.40
15574;DHT22;7888;46.748;8.102;2022-07-03T04:36:18;21.20;54.60
15574;DHT22;7888;46.748;8.102;2022-07-03T04:38:44;21.20;54.70
15574;DHT22;7888;46.748;8.102;2022-07-03T04:41:10;21.20;54.70
15574;DHT22;7888;46.748;8.102;2022-07-03T04:43:36;21.20;54.70
15574;DHT22;7888;46.748;8.102;2022-07-03T04:46:02;21.20;54.70
15574;DHT22;7888;46.748;8.102;2022-07-03T04:48:29;21.20;54.80
15574;DHT22;7888;46.748;8.102;2022-07-03T04:50:56;21.20;54.70
15574;DHT22;7888;46.748;8.102;2022-07-03T04:53:22;21.30;54.90
15574;DHT22;7888;46.748;8.102;2022-07-03T04:55:49;21.30;55.00
15574;DHT22;7888;46.748;8.102;2022-07-03T04:58:14;21.30;55.60
15574;DHT22;7888;46.748;8.102;2022-07-03T05:00:40;21.30;55.10
15574;DHT22;7888;46.748;8.102;2022-07-03T05:03:07;21.30;55.10
15574;DHT22;7888;46.748;8.102;2022-07-03T05:05:33;21.40;55.10
15574;DHT22;7888;46.748;8.102;2022-07-03T05:07:59;21.30;55.00
15574;DHT22;7888;46.748;8.102;2022-07-03T05:10:26;21.40;55.00
15574;DHT22;7888;46.748;8.102;2022-07-03T05:12:52;21.40;55.10
15574;DHT22;7888;46.748;8.102;2022-07-03T05:15:19;21.40;55.10
15574;DHT22;7888;46.748;8.102;2022-07-03T05:17:45;21.50;55.30
15574;DHT22;7888;46.748;8.102;2022-07-03T05:20:11;21.50;55.30
15574;DHT22;7888;46.748;8.102;2022-07-03T05:22:52;21.50;55.30
15574;DHT22;7888;46.748;8.102;2022-07-03T05:25:20;21.60;55.30
15574;DHT22;7888;46.748;8.102;2022-07-03T05:27:46;21.60;55.20
15574;DHT22;7888;46.748;8.102;2022-07-03T05:30:13;21.60;55.20
15574;DHT22;7888;46.748;8.102;2022-07-03T05:32:39;21.70;55.30
15574;DHT22;7888;46.748;8.102;2022-07-03T05:35:05;21.70;55.10
15574;DHT22;7888;46.748;8.102;2022-07-03T05:37:32;21.70;55.00
15574;DHT22;7888;46.748;8.102;2022-07-03T05:39:57;21.70;54.90
15574;DHT22;7888;46.748;8.102;2022-07-03T05:42:23;21.70;54.90
15574;DHT22;7888;46.748;8.102;2022-07-03T05:44:49;21.80;55.00
15574;DHT22;7888;46.748;8.102;2022-07-03T05:47:15;21.80;55.00
15574;DHT22;7888;46.748;8.102;2022-07-03T05:49:40;21.80;55.00
15574;DHT22;7888;46.748;8.102;2022-07-03T05:52:06;21.90;54.90
15574;DHT22;7888;46.748;8.102;2022-07-03T05:54:32;21.90;54.90
15574;DHT22;7888;46.748;8.102;2022-07-03T05:56:58;22.00;55.00
15574;DHT22;7888;46.748;8.102;2022-07-03T05:59:24;22.10;55.20
15574;DHT22;7888;46.748;8.102;2022-07-03T06:01:50;22.10;55.30
15574;DHT22;7888;46.748;8.102;2022-07-03T06:04:15;22.20;55.30
15574;DHT22;7888;46.748;8.102;2022-07-03T06:06:41;22.30;55.10
15574;DHT22;7888;46.748;8.102;2022-07-03T06:09:07;22.40;55.00
15574;DHT22;7888;46.748;8.102;2022-07-03T06:11:33;22.50;55.00
15574;DHT22;7888;46.748;8.102;2022-07-03T06:13:59;22.60;54.90
15574;DHT22;7888;46.748;8.102;2022-07-03T06:16:25;22.70;54.80
15574;DHT22;7888;46.748;8.102;2022-07-03T06:18:51;22.80;54.70
15574;DHT22;7888;46.748;8.102;2022-07-03T06:21:16;22.90;54.50
15574;DHT22;7888;46.748;8.102;2022-07-03T06:23:42;23.00;54.50
15574;DHT22;7888;46.748;8.102;2022-07-03T06:26:08;23.10;54.50
15574;DHT22;7888;46.748;8.102;2022-07-03T06:28:34;23.20;54.30
15574;DHT22;7888;46.748;8.102;2022-07-03T06:30:59;23.30;54.20
15574;DHT22;7888;46.748;8.102;2022-07-03T06:33:25;23.40;53.90
15574;DHT22;7888;46.748;8.102;2022-07-03T06:35:51;23.60;53.80
15574;DHT22;7888;46.748;8.102;2022-07-03T06:38:17;23.70;53.40
15574;DHT22;7888;46.748;8.102;2022-07-03T06:40:42;23.80;53.10
15574;DHT22;7888;46.748;8.102;2022-07-03T06:43:08;23.90;53.00
15574;DHT22;7888;46.748;8.102;2022-07-03T06:45:34;24.00;53.10
15574;DHT22;7888;46.748;8.102;2022-07-03T06:48:00;24.10;53.00
15574;DHT22;7888;46.748;8.102;2022-07-03T06:50:26;24.20;52.90
15574;DHT22;7888;46.748;8.102;2022-07-03T06:52:51;24.40;52.80
15574;DHT22;7888;46.748;8.102;2022-07-03T06:55:17;24.50;52.50
15574;DHT22;7888;46.748;8.102;2022-07-03T06:57:43;24.60;52.00
15574;DHT22;7888;46.748;8.102;2022-07-03T07:00:09;24.70;51.60
15574;DHT22;7888;46.748;8.102;2022-07-03T07:02:36;24.80;51.30
15574;DHT22;7888;46.748;8.102;2022-07-03T07:05:02;24.80;51.00
15574;DHT22;7888;46.748;8.102;2022-07-03T07:07:28;24.90;50.80
15574;DHT22;7888;46.748;8.102;2022-07-03T07:09:54;24.90;50.60
15574;DHT22;7888;46.748;8.102;2022-07-03T07:12:19;25.00;50.50
15574;DHT22;7888;46.748;8.102;2022-07-03T07:14:45;25.10;50.60
15574;DHT22;7888;46.748;8.102;2022-07-03T07:17:11;25.10;50.50
15574;DHT22;7888;46.748;8.102;2022-07-03T07:19:37;25.20;50.50
15574;DHT22;7888;46.748;8.102;2022-07-03T07:22:03;25.30;50.70
15574;DHT22;7888;46.748;8.102;2022-07-03T07:24:29;25.30;50.60
15574;DHT22;7888;46.748;8.102;2022-07-03T07:26:55;25.50;50.50
15574;DHT22;7888;46.748;8.102;2022-07-03T07:29:21;25.60;50.40
15574;DHT22;7888;46.748;8.102;2022-07-03T07:31:47;25.70;50.10
15574;DHT22;7888;46.748;8.102;2022-07-03T07:34:12;25.80;49.60
15574;DHT22;7888;46.748;8.102;2022-07-03T07:36:39;25.90;49.20
15574;DHT22;7888;46.748;8.102;2022-07-03T07:39:05;26.00;49.20
15574;DHT22;7888;46.748;8.102;2022-07-03T07:41:31;26.20;49.30
15574;DHT22;7888;46.748;8.102;2022-07-03T07:43:57;26.30;49.00
15574;DHT22;7888;46.748;8.102;2022-07-03T07:46:23;26.50;49.20
15574;DHT22;7888;46.748;8.102;2022-07-03T07:48:49;26.60;49.10
15574;DHT22;7888;46.748;8.102;2022-07-03T07:51:15;26.80;49.60
15574;DHT22;7888;46.748;8.102;2022-07-03T07:53:41;26.90;48.70
15574;DHT22;7888;46.748;8.102;2022-07-03T07:56:07;27.00;48.50
15574;DHT22;7888;46.748;8.102;2022-07-03T07:58:33;27.20;48.40
15574;DHT22;7888;46.748;8.102;2022-07-03T08:00:58;27.30;47.90
15574;DHT22;7888;46.748;8.102;2022-07-03T08:03:43;27.50;47.80
15574;DHT22;7888;46.748;8.102;2022-07-03T08:06:27;27.60;47.60
15574;DHT22;7888;46.748;8.102;2022-07-03T08:08:52;27.70;47.20
15574;DHT22;7888;46.748;8.102;2022-07-03T08:11:18;27.80;47.30
15574;DHT22;7888;46.748;8.102;2022-07-03T08:13:44;27.90;46.80
15574;DHT22;7888;46.748;8.102;2022-07-03T08:16:12;28.00;46.40
15574;DHT22;7888;46.748;8.102;2022-07-03T08:18:38;28.20;45.90
15574;DHT22;7888;46.748;8.102;2022-07-03T08:21:04;28.30;46.10
15574;DHT22;7888;46.748;8.102;2022-07-03T08:23:30;28.40;45.60
15574;DHT22;7888;46.748;8.102;2022-07-03T08:25:56;28.50;45.10
15574;DHT22;7888;46.748;8.102;2022-07-03T08:28:22;28.60;44.80
15574;DHT22;7888;46.748;8.102;2022-07-03T08:30:48;28.70;44.70
15574;DHT22;7888;46.748;8.102;2022-07-03T08:33:14;28.80;44.60
15574;DHT22;7888;46.748;8.102;2022-07-03T08:35:40;28.90;44.50
15574;DHT22;7888;46.748;8.102;2022-07-03T08:38:06;29.00;44.50
15574;DHT22;7888;46.748;8.102;2022-07-03T08:40:32;29.10;44.40
15574;DHT22;7888;46.748;8.102;2022-07-03T08:42:59;29.20;44.20
15574;DHT22;7888;46.748;8.102;2022-07-03T08:45:30;29.30;44.30
15574;DHT22;7888;46.748;8.102;2022-07-03T08:47:59;29.40;43.90
15574;DHT22;7888;46.748;8.102;2022-07-03T08:50:26;29.50;43.90
15574;DHT22;7888;46.748;8.102;2022-07-03T08:52:52;29.60;43.60
15574;DHT22;7888;46.748;8.102;2022-07-03T08:55:18;29.70;43.70
15574;DHT22;7888;46.748;8.102;2022-07-03T08:57:47;29.80;43.80
15574;DHT22;7888;46.748;8.102;2022-07-03T09:00:15;29.90;43.80
15574;DHT22;7888;46.748;8.102;2022-07-03T09:02:47;30.00;43.80
15574;DHT22;7888;46.748;8.102;2022-07-03T09:05:16;30.10;43.30
15574;DHT22;7888;46.748;8.102;2022-07-03T09:07:43;30.10;43.60
15574;DHT22;7888;46.748;8.102;2022-07-03T09:10:12;30.20;43.10
15574;DHT22;7888;46.748;8.102;2022-07-03T09:12:40;30.30;43.00
15574;DHT22;7888;46.748;8.102;2022-07-03T09:15:08;30.40;43.00
15574;DHT22;7888;46.748;8.102;2022-07-03T09:17:34;30.40;42.70
15574;DHT22;7888;46.748;8.102;2022-07-03T09:20:04;30.50;42.60
15574;DHT22;7888;46.748;8.102;2022-07-03T09:22:37;30.50;42.60
15574;DHT22;7888;46.748;8.102;2022-07-03T09:25:13;30.50;42.20
15574;DHT22;7888;46.748;8.102;2022-07-03T09:27:52;30.50;42.30
15574;DHT22;7888;46.748;8.102;2022-07-03T09:30:19;30.60;42.30
15574;DHT22;7888;46.748;8.102;2022-07-03T09:32:46;30.60;42.50
15574;DHT22;7888;46.748;8.102;2022-07-03T09:37:50;30.60;42.60
15574;DHT22;7888;46.748;8.102;2022-07-03T09:40:28;30.70;42.80
15574;DHT22;7888;46.748;8.102;2022-07-03T09:43:11;30.70;43.10
15574;DHT22;7888;46.748;8.102;2022-07-03T09:48:38;30.90;42.50
15574;DHT22;7888;46.748;8.102;2022-07-03T09:51:20;31.00;42.60
15574;DHT22;7888;46.748;8.102;2022-07-03T09:53:56;31.00;42.20
15574;DHT22;7888;46.748;8.102;2022-07-03T09:56:26;31.10;42.10
15574;DHT22;7888;46.748;8.102;2022-07-03T09:59:13;31.10;42.00
15574;DHT22;7888;46.748;8.102;2022-07-03T10:01:42;31.10;41.30
15574;DHT22;7888;46.748;8.102;2022-07-03T10:04:19;31.20;41.60
15574;DHT22;7888;46.748;8.102;2022-07-03T10:06:46;31.30;41.10
15574;DHT22;7888;46.748;8.102;2022-07-03T10:09:15;31.30;41.20
15574;DHT22;7888;46.748;8.102;2022-07-03T10:11:43;31.30;41.10
15574;DHT22;7888;46.748;8.102;2022-07-03T10:14:21;31.40;41.00
15574;DHT22;7888;46.748;8.102;2022-07-03T10:16:49;31.40;40.50
15574;DHT22;7888;46.748;8.102;2022-07-03T10:19:20;31.50;41.20
15574;DHT22;7888;46.748;8.102;2022-07-03T10:21:55;31.60;41.00
15574;DHT22;7888;46.748;8.102;2022-07-03T10:24:33;31.70;40.80
15574;DHT22;7888;46.748;8.102;2022-07-03T10:27:00;31.80;40.60
15574;DHT22;7888;46.748;8.102;2022-07-03T10:29:27;32.00;41.10
15574;DHT22;7888;46.748;8.102;2022-07-03T10:31:53;32.10;40.90
15574;DHT22;7888;46.748;8.102;2022-07-03T10:34:22;32.20;40.30
15574;DHT22;7888;46.748;8.102;2022-07-03T10:36:56;32.30;40.00
15574;DHT22;7888;46.748;8.102;2022-07-03T10:42:59;32.40;38.90
15574;DHT22;7888;46.748;8.102;2022-07-03T10:46:09;32.50;39.10
15574;DHT22;7888;46.748;8.102;2022-07-03T10:48:59;32.50;39.10
15574;DHT22;7888;46.748;8.102;2022-07-03T10:54:23;32.60;39.30
15574;DHT22;7888;46.748;8.102;2022-07-03T10:57:16;32.70;38.60
15574;DHT22;7888;46.748;8.102;2022-07-03T11:15:51;33.10;36.90
15574;DHT22;7888;46.748;8.102;2022-07-03T11:18:28;33.20;36.90
15574;DHT22;7888;46.748;8.102;2022-07-03T11:24:43;33.40;36.30
15574;DHT22;7888;46.748;8.102;2022-07-03T11:27:17;33.50;36.00
15574;DHT22;7888;46.748;8.102;2022-07-03T11:29:54;33.60;36.60
15574;DHT22;7888;46.748;8.102;2022-07-03T11:32:46;33.70;35.70
15574;DHT22;7888;46.748;8.102;2022-07-03T11:35:48;33.80;35.70
15574;DHT22;7888;46.748;8.102;2022-07-03T11:38:25;33.90;35.90
15574;DHT22;7888;46.748;8.102;2022-07-03T11:40:55;34.00;35.50
15574;DHT22;7888;46.748;8.102;2022-07-03T11:43:23;34.10;35.50
15574;DHT22;7888;46.748;8.102;2022-07-03T11:45:49;34.20;35.60
15574;DHT22;7888;46.748;8.102;2022-07-03T11:48:18;34.30;34.80
15574;DHT22;7888;46.748;8.102;2022-07-03T11:50:46;34.40;34.70
15574;DHT22;7888;46.748;8.102;2022-07-03T11:56:08;34.60;34.00
15574;DHT22;7888;46.748;8.102;2022-07-03T11:58:47;34.80;34.70
15574;DHT22;7888;46.748;8.102;2022-07-03T12:01:32;34.90;34.00
15574;DHT22;7888;46.748;8.102;2022-07-03T12:04:18;35.00;33.80
15574;DHT22;7888;46.748;8.102;2022-07-03T12:06:50;35.10;33.70
15574;DHT22;7888;46.748;8.102;2022-07-03T12:09:20;35.10;34.00
15574;DHT22;7888;46.748;8.102;2022-07-03T12:14:43;35.30;33.70
15574;DHT22;7888;46.748;8.102;2022-07-03T12:17:23;35.30;33.60
15574;DHT22;7888;46.748;8.102;2022-07-03T12:19:58;35.40;33.90
15574;DHT22;7888;46.748;8.102;2022-07-03T12:25:05;35.60;33.60
15574;DHT22;7888;46.748;8.102;2022-07-03T12:27:38;35.70;33.50
15574;DHT22;7888;46.748;8.102;2022-07-03T12:30:07;35.70;33.20
15574;DHT22;7888;46.748;8.102;2022-07-03T12:32:36;35.80;32.60
15574;DHT22;7888;46.748;8.102;2022-07-03T12:35:04;35.90;33.20
15574;DHT22;7888;46.748;8.102;2022-07-03T12:37:35;35.90;33.20
15574;DHT22;7888;46.748;8.102;2022-07-03T12:40:11;36.00;33.30
15574;DHT22;7888;46.748;8.102;2022-07-03T12:42:54;36.00;33.40
15574;DHT22;7888;46.748;8.102;2022-07-03T12:45:28;36.10;32.70
15574;DHT22;7888;46.748;8.102;2022-07-03T12:48:05;36.10;32.50
15574;DHT22;7888;46.748;8.102;2022-07-03T12:50:44;36.10;32.00
15574;DHT22;7888;46.748;8.102;2022-07-03T12:53:30;36.10;31.30
15574;DHT22;7888;46.748;8.102;2022-07-03T12:56:06;36.20;31.60
15574;DHT22;7888;46.748;8.102;2022-07-03T12:58:36;36.10;31.10
15574;DHT22;7888;46.748;8.102;2022-07-03T13:01:26;36.30;31.10
15574;DHT22;7888;46.748;8.102;2022-07-03T13:03:56;36.20;30.90
15574;DHT22;7888;46.748;8.102;2022-07-03T13:06:23;36.30;30.80
15574;DHT22;7888;46.748;8.102;2022-07-03T13:09:01;36.40;31.00
15574;DHT22;7888;46.748;8.102;2022-07-03T13:11:31;36.40;30.40
15574;DHT22;7888;46.748;8.102;2022-07-03T13:14:06;36.50;30.50
15574;DHT22;7888;46.748;8.102;2022-07-03T13:16:37;36.50;30.00
15574;DHT22;7888;46.748;8.102;2022-07-03T13:19:06;36.50;29.80
15574;DHT22;7888;46.748;8.102;2022-07-03T13:21:34;36.50;29.50
15574;DHT22;7888;46.748;8.102;2022-07-03T13:24:00;36.40;29.90
15574;DHT22;7888;46.748;8.102;2022-07-03T13:26:26;36.40;30.00
15574;DHT22;7888;46.748;8.102;2022-07-03T13:28:52;36.40;30.40
15574;DHT22;7888;46.748;8.102;2022-07-03T13:31:18;36.30;30.00
15574;DHT22;7888;46.748;8.102;2022-07-03T13:33:44;36.30;30.00
15574;DHT22;7888;46.748;8.102;2022-07-03T13:36:10;36.20;29.60
15574;DHT22;7888;46.748;8.102;2022-07-03T13:38:36;36.20;29.80
15574;DHT22;7888;46.748;8.102;2022-07-03T13:41:01;36.10;29.60
15574;DHT22;7888;46.748;8.102;2022-07-03T13:43:27;36.10;29.70
15574;DHT22;7888;46.748;8.102;2022-07-03T13:45:53;36.10;30.00
15574;DHT22;7888;46.748;8.102;2022-07-03T13:48:19;36.10;30.00
15574;DHT22;7888;46.748;8.102;2022-07-03T13:50:45;36.10;30.00
15574;DHT22;7888;46.748;8.102;2022-07-03T13:53:12;36.10;30.00
15574;DHT22;7888;46.748;8.102;2022-07-03T13:55:38;36.10;30.00
15574;DHT22;7888;46.748;8.102;2022-07-03T13:58:06;36.10;30.20
15574;DHT22;7888;46.748;8.102;2022-07-03T14:00:34;36.10;30.10
15574;DHT22;7888;46.748;8.102;2022-07-03T14:03:00;36.10;30.30
15574;DHT22;7888;46.748;8.102;2022-07-03T14:05:27;36.10;30.10
15574;DHT22;7888;46.748;8.102;2022-07-03T14:07:55;36.10;30.00
15574;DHT22;7888;46.748;8.102;2022-07-03T14:10:21;36.10;30.20
15574;DHT22;7888;46.748;8.102;2022-07-03T14:12:50;36.10;30.60
15574;DHT22;7888;46.748;8.102;2022-07-03T14:15:17;36.10;30.60
15574;DHT22;7888;46.748;8.102;2022-07-03T14:17:43;36.10;30.60
15574;DHT22;7888;46.748;8.102;2022-07-03T14:20:10;36.10;30.70
15574;DHT22;7888;46.748;8.102;2022-07-03T14:22:37;36.10;30.50
15574;DHT22;7888;46.748;8.102;2022-07-03T14:25:03;36.10;30.30
15574;DHT22;7888;46.748;8.102;2022-07-03T14:27:29;36.10;30.70
15574;DHT22;7888;46.748;8.102;2022-07-03T14:30:14;36.10;30.40
15574;DHT22;7888;46.748;8.102;2022-07-03T14:32:58;36.10;30.30
15574;DHT22;7888;46.748;8.102;2022-07-03T14:35:24;36.10;30.20
15574;DHT22;7888;46.748;8.102;2022-07-03T14:37:51;36.00;30.60
15574;DHT22;7888;46.748;8.102;2022-07-03T14:40:18;36.00;30.30
15574;DHT22;7888;46.748;8.102;2022-07-03T14:42:44;36.00;30.70
15574;DHT22;7888;46.748;8.102;2022-07-03T14:45:10;36.00;30.80
15574;DHT22;7888;46.748;8.102;2022-07-03T14:47:36;36.00;30.90
15574;DHT22;7888;46.748;8.102;2022-07-03T14:50:02;36.00;30.50
15574;DHT22;7888;46.748;8.102;2022-07-03T14:52:28;36.10;30.60
15574;DHT22;7888;46.748;8.102;2022-07-03T14:54:55;36.10;30.50
15574;DHT22;7888;46.748;8.102;2022-07-03T15:00:19;36.20;29.90
15574;DHT22;7888;46.748;8.102;2022-07-03T15:03:07;36.30;30.00
15574;DHT22;7888;46.748;8.102;2022-07-03T15:05:41;36.40;30.00
15574;DHT22;7888;46.748;8.102;2022-07-03T15:11:14;36.50;30.00
15574;DHT22;7888;46.748;8.102;2022-07-03T15:14:07;36.50;29.90
15574;DHT22;7888;46.748;8.102;2022-07-03T15:16:36;36.50;30.10
15574;DHT22;7888;46.748;8.102;2022-07-03T15:19:06;36.40;30.00
15574;DHT22;7888;46.748;8.102;2022-07-03T15:21:36;36.40;30.00
15574;DHT22;7888;46.748;8.102;2022-07-03T15:24:06;36.40;30.10
15574;DHT22;7888;46.748;8.102;2022-07-03T15:26:33;36.30;30.00
15574;DHT22;7888;46.748;8.102;2022-07-03T15:29:00;36.40;30.10
15574;DHT22;7888;46.748;8.102;2022-07-03T15:31:28;36.40;30.40
15574;DHT22;7888;46.748;8.102;2022-07-03T15:34:03;36.30;30.80
15574;DHT22;7888;46.748;8.102;2022-07-03T15:36:38;36.30;30.60
15574;DHT22;7888;46.748;8.102;2022-07-03T15:39:17;36.40;30.40
15574;DHT22;7888;46.748;8.102;2022-07-03T15:42:10;36.40;30.50
15574;DHT22;7888;46.748;8.102;2022-07-03T15:48:03;36.30;30.20
15574;DHT22;7888;46.748;8.102;2022-07-03T15:53:22;36.30;30.40
15574;DHT22;7888;46.748;8.102;2022-07-03T15:56:00;36.30;30.30
15574;DHT22;7888;46.748;8.102;2022-07-03T15:58:30;36.30;30.30
15574;DHT22;7888;46.748;8.102;2022-07-03T16:01:01;36.20;30.20
15574;DHT22;7888;46.748;8.102;2022-07-03T16:06:40;36.10;30.00
15574;DHT22;7888;46.748;8.102;2022-07-03T16:09:07;36.00;30.00
15574;DHT22;7888;46.748;8.102;2022-07-03T16:11:34;36.00;30.10
15574;DHT22;7888;46.748;8.102;2022-07-03T16:14:03;36.00;30.10
15574;DHT22;7888;46.748;8.102;2022-07-03T16:16:31;35.90;30.30
15574;DHT22;7888;46.748;8.102;2022-07-03T16:19:03;36.00;30.70
15574;DHT22;7888;46.748;8.102;2022-07-03T16:21:30;36.00;30.90
15574;DHT22;7888;46.748;8.102;2022-07-03T16:23:58;36.10;31.10
15574;DHT22;7888;46.748;8.102;2022-07-03T16:26:26;36.10;30.90
15574;DHT22;7888;46.748;8.102;2022-07-03T16:28:54;36.10;30.70
15574;DHT22;7888;46.748;8.102;2022-07-03T16:31:27;36.20;31.20
15574;DHT22;7888;46.748;8.102;2022-07-03T16:34:14;36.20;31.60
15574;DHT22;7888;46.748;8.102;2022-07-03T16:36:48;36.20;31.80
15574;DHT22;7888;46.748;8.102;2022-07-03T16:39:34;36.20;32.00
15574;DHT22;7888;46.748;8.102;2022-07-03T16:42:02;36.10;32.00
15574;DHT22;7888;46.748;8.102;2022-07-03T16:44:37;36.10;31.70
15574;DHT22;7888;46.748;8.102;2022-07-03T16:47:06;36.00;31.50
15574;DHT22;7888;46.748;8.102;2022-07-03T16:49:37;35.90;31.30
15574;DHT22;7888;46.748;8.102;2022-07-03T16:52:04;35.90;31.50
15574;DHT22;7888;46.748;8.102;2022-07-03T16:54:32;35.70;31.70
15574;DHT22;7888;46.748;8.102;2022-07-03T16:56:59;35.60;31.30
15574;DHT22;7888;46.748;8.102;2022-07-03T16:59:26;35.60;31.80
15574;DHT22;7888;46.748;8.102;2022-07-03T17:01:52;35.50;32.00
15574;DHT22;7888;46.748;8.102;2022-07-03T17:04:19;35.30;32.20
15574;DHT22;7888;46.748;8.102;2022-07-03T17:06:46;35.30;32.40
15574;DHT22;7888;46.748;8.102;2022-07-03T17:09:12;35.10;32.00
15574;DHT22;7888;46.748;8.102;2022-07-03T17:11:42;35.00;31.80
15574;DHT22;7888;46.748;8.102;2022-07-03T17:14:10;34.90;31.50
15574;DHT22;7888;46.748;8.102;2022-07-03T17:16:42;34.90;31.80
